sensor_id;sensor_type;location;lat;lon;timestamp;P1;durP1;ratioP1;P2;durP2;ratioP2
15667;SDS011;7934;48.710;9.024;2023-02-03T00:00:00;2.00;;;1.23;;
15667;SDS011;7934;48.710;9.024;2023-02-03T00:02:27;1.33;;;1.30;;
15667;SDS011;7934;48.710;9.024;2023-02-03T00:04:54;1.40;;;1.30;;
15667;SDS011;7934;48.710;9.024;2023-02-03T00:07:22;1.70;;;1.23;;
15667;SDS011;7934;48.710;9.024;2023-02-03T00:09:49;1.88;;;1.30;;
15667;SDS011;7934;48.710;9.024;2023-02-03T00:12:17;0.93;;;0.93;;
15667;SDS011;7934;48.710;9.024;2023-02-03T00:14:44;1.90;;;1.05;;
15667;SDS011;7934;48.710;9.024;2023-02-03T00:17:11;1.83;;;0.80;;
15667;SDS011;7934;48.710;9.024;2023-02-03T00:19:39;3.08;;;1.08;;
15667;SDS011;7934;48.710;9.024;2023-02-03T00:22:06;0.80;;;0.80;;
15667;SDS011;7934;48.710;9.024;2023-02-03T00:24:34;1.20;;;1.10;;
15667;SDS011;7934;48.710;9.024;2023-02-03T00:27:01;0.90;;;0.90;;
15667;SDS011;7934;48.710;9.024;2023-02-03T00:29:29;1.30;;;0.90;;
15667;SDS011;7934;48.710;9.024;2023-02-03T00:31:56;1.00;;;1.00;;
15667;SDS011;7934;48.710;9.024;2023-02-03T00:34:26;1.00;;;1.00;;
15667;SDS011;7934;48.710;9.024;2023-02-03T00:36:53;0.90;;;0.90;;
15667;SDS011;7934;48.710;9.024;2023-02-03T00:39:20;0.85;;;0.85;;
15667;SDS011;7934;48.710;9.024;2023-02-03T00:41:47;1.10;;;1.00;;
15667;SDS011;7934;48.710;9.024;2023-02-03T00:44:14;1.30;;;0.70;;
15667;SDS011;7934;48.710;9.024;2023-02-03T00:46:43;1.08;;;0.90;;
15667;SDS011;7934;48.710;9.024;2023-02-03T00:49:10;0.98;;;0.95;;
15667;SDS011;7934;48.710;9.024;2023-02-03T00:51:37;0.80;;;0.80;;
15667;SDS011;7934;48.710;9.024;2023-02-03T00:54:04;1.15;;;0.80;;
15667;SDS011;7934;48.710;9.024;2023-02-03T00:56:31;0.93;;;0.80;;
15667;SDS011;7934;48.710;9.024;2023-02-03T00:58:58;0.88;;;0.82;;
15667;SDS011;7934;48.710;9.024;2023-02-03T01:01:26;1.77;;;1.08;;
15667;SDS011;7934;48.710;9.024;2023-02-03T01:03:54;1.05;;;1.00;;
15667;SDS011;7934;48.710;9.024;2023-02-03T01:06:21;0.80;;;0.80;;
15667;SDS011;7934;48.710;9.024;2023-02-03T01:08:48;0.90;;;0.90;;
15667;SDS011;7934;48.710;9.024;2023-02-03T01:11:17;0.83;;;0.83;;
15667;SDS011;7934;48.710;9.024;2023-02-03T01:13:44;1.05;;;0.90;;
15667;SDS011;7934;48.710;9.024;2023-02-03T01:16:14;0.95;;;0.90;;
15667;SDS011;7934;48.710;9.024;2023-02-03T01:18:42;0.90;;;0.90;;
15667;SDS011;7934;48.710;9.024;2023-02-03T01:21:12;1.20;;;1.20;;
15667;SDS011;7934;48.710;9.024;2023-02-03T01:23:39;1.58;;;1.10;;
15667;SDS011;7934;48.710;9.024;2023-02-03T01:26:07;1.08;;;1.00;;
15667;SDS011;7934;48.710;9.024;2023-02-03T01:28:34;0.90;;;0.90;;
15667;SDS011;7934;48.710;9.024;2023-02-03T01:31:08;1.15;;;1.15;;
15667;SDS011;7934;48.710;9.024;2023-02-03T01:33:35;1.23;;;1.17;;
15667;SDS011;7934;48.710;9.024;2023-02-03T01:36:05;1.20;;;0.90;;
15667;SDS011;7934;48.710;9.024;2023-02-03T01:38:33;1.00;;;1.00;;
15667;SDS011;7934;48.710;9.024;2023-02-03T01:41:00;1.20;;;1.05;;
15667;SDS011;7934;48.710;9.024;2023-02-03T01:43:28;1.65;;;1.13;;
15667;SDS011;7934;48.710;9.024;2023-02-03T01:45:55;1.27;;;1.17;;
15667;SDS011;7934;48.710;9.024;2023-02-03T01:48:22;1.13;;;1.10;;
15667;SDS011;7934;48.710;9.024;2023-02-03T01:50:50;1.87;;;1.30;;
15667;SDS011;7934;48.710;9.024;2023-02-03T01:53:17;2.00;;;1.30;;
15667;SDS011;7934;48.710;9.024;2023-02-03T01:55:46;1.40;;;1.30;;
15667;SDS011;7934;48.710;9.024;2023-02-03T01:58:17;1.90;;;1.20;;
15667;SDS011;7934;48.710;9.024;2023-02-03T02:00:45;2.05;;;1.70;;
15667;SDS011;7934;48.710;9.024;2023-02-03T02:03:12;3.40;;;1.50;;
15667;SDS011;7934;48.710;9.024;2023-02-03T02:05:41;1.23;;;1.23;;
15667;SDS011;7934;48.710;9.024;2023-02-03T02:08:09;2.30;;;1.40;;
15667;SDS011;7934;48.710;9.024;2023-02-03T02:10:36;2.10;;;1.47;;
15667;SDS011;7934;48.710;9.024;2023-02-03T02:13:05;3.78;;;1.80;;
15667;SDS011;7934;48.710;9.024;2023-02-03T02:15:35;1.42;;;1.40;;
15667;SDS011;7934;48.710;9.024;2023-02-03T02:18:07;3.47;;;1.50;;
15667;SDS011;7934;48.710;9.024;2023-02-03T02:20:49;2.50;;;1.90;;
15667;SDS011;7934;48.710;9.024;2023-02-03T02:26:25;1.90;;;1.70;;
15667;SDS011;7934;48.710;9.024;2023-02-03T02:29:08;3.78;;;1.67;;
15667;SDS011;7934;48.710;9.024;2023-02-03T02:31:51;1.88;;;1.40;;
15667;SDS011;7934;48.710;9.024;2023-02-03T02:34:23;1.65;;;1.55;;
15667;SDS011;7934;48.710;9.024;2023-02-03T02:37:03;1.60;;;1.50;;
15667;SDS011;7934;48.710;9.024;2023-02-03T02:39:36;2.20;;;1.80;;
15667;SDS011;7934;48.710;9.024;2023-02-03T02:42:05;2.60;;;1.83;;
15667;SDS011;7934;48.710;9.024;2023-02-03T02:44:34;2.40;;;1.73;;
15667;SDS011;7934;48.710;9.024;2023-02-03T02:47:04;2.28;;;1.83;;
15667;SDS011;7934;48.710;9.024;2023-02-03T02:49:33;2.45;;;2.00;;
15667;SDS011;7934;48.710;9.024;2023-02-03T02:52:03;2.05;;;1.70;;
15667;SDS011;7934;48.710;9.024;2023-02-03T02:54:32;1.73;;;1.63;;
15667;SDS011;7934;48.710;9.024;2023-02-03T02:56:59;2.50;;;1.70;;
15667;SDS011;7934;48.710;9.024;2023-02-03T02:59:28;2.60;;;1.50;;
15667;SDS011;7934;48.710;9.024;2023-02-03T03:01:55;1.70;;;1.60;;
15667;SDS011;7934;48.710;9.024;2023-02-03T03:04:24;2.00;;;1.50;;
15667;SDS011;7934;48.710;9.024;2023-02-03T03:06:52;3.30;;;1.50;;
15667;SDS011;7934;48.710;9.024;2023-02-03T03:09:24;1.53;;;1.43;;
15667;SDS011;7934;48.710;9.024;2023-02-03T03:11:54;2.80;;;1.70;;
15667;SDS011;7934;48.710;9.024;2023-02-03T03:14:23;1.45;;;1.30;;
15667;SDS011;7934;48.710;9.024;2023-02-03T03:16:52;2.17;;;1.50;;
15667;SDS011;7934;48.710;9.024;2023-02-03T03:19:20;1.98;;;1.48;;
15667;SDS011;7934;48.710;9.024;2023-02-03T03:21:51;1.05;;;1.05;;
15667;SDS011;7934;48.710;9.024;2023-02-03T03:24:20;1.70;;;1.20;;
15667;SDS011;7934;48.710;9.024;2023-02-03T03:26:49;1.30;;;1.20;;
15667;SDS011;7934;48.710;9.024;2023-02-03T03:29:19;1.08;;;1.08;;
15667;SDS011;7934;48.710;9.024;2023-02-03T03:31:48;1.00;;;0.97;;
15667;SDS011;7934;48.710;9.024;2023-02-03T03:34:15;0.88;;;0.88;;
15667;SDS011;7934;48.710;9.024;2023-02-03T03:36:43;0.90;;;0.90;;
15667;SDS011;7934;48.710;9.024;2023-02-03T03:39:14;0.80;;;0.80;;
15667;SDS011;7934;48.710;9.024;2023-02-03T03:41:46;0.70;;;0.70;;
15667;SDS011;7934;48.710;9.024;2023-02-03T03:44:15;1.30;;;1.00;;
15667;SDS011;7934;48.710;9.024;2023-02-03T03:46:43;1.08;;;0.98;;
15667;SDS011;7934;48.710;9.024;2023-02-03T03:49:12;0.70;;;0.70;;
15667;SDS011;7934;48.710;9.024;2023-02-03T03:51:41;0.98;;;0.70;;
15667;SDS011;7934;48.710;9.024;2023-02-03T03:54:10;0.60;;;0.57;;
15667;SDS011;7934;48.710;9.024;2023-02-03T03:56:40;0.85;;;0.60;;
15667;SDS011;7934;48.710;9.024;2023-02-03T03:59:09;1.00;;;0.50;;
15667;SDS011;7934;48.710;9.024;2023-02-03T04:01:38;0.50;;;0.50;;
15667;SDS011;7934;48.710;9.024;2023-02-03T04:04:06;0.50;;;0.50;;
15667;SDS011;7934;48.710;9.024;2023-02-03T04:06:34;1.00;;;0.70;;
15667;SDS011;7934;48.710;9.024;2023-02-03T04:09:02;0.60;;;0.60;;
15667;SDS011;7934;48.710;9.024;2023-02-03T04:11:29;0.70;;;0.70;;
15667;SDS011;7934;48.710;9.024;2023-02-03T04:14:15;1.40;;;0.68;;
15667;SDS011;7934;48.710;9.024;2023-02-03T04:16:42;0.68;;;0.68;;
15667;SDS011;7934;48.710;9.024;2023-02-03T04:19:10;1.00;;;0.70;;
15667;SDS011;7934;48.710;9.024;2023-02-03T04:21:37;0.77;;;0.77;;
15667;SDS011;7934;48.710;9.024;2023-02-03T04:24:04;0.90;;;0.90;;
15667;SDS011;7934;48.710;9.024;2023-02-03T04:26:31;2.25;;;0.90;;
15667;SDS011;7934;48.710;9.024;2023-02-03T04:28:58;0.95;;;0.88;;
15667;SDS011;7934;48.710;9.024;2023-02-03T04:31:27;0.80;;;0.80;;
15667;SDS011;7934;48.710;9.024;2023-02-03T04:33:54;0.90;;;0.80;;
15667;SDS011;7934;48.710;9.024;2023-02-03T04:36:21;1.07;;;0.90;;
15667;SDS011;7934;48.710;9.024;2023-02-03T04:38:48;0.90;;;0.90;;
15667;SDS011;7934;48.710;9.024;2023-02-03T04:41:15;1.15;;;1.08;;
15667;SDS011;7934;48.710;9.024;2023-02-03T04:43:43;1.45;;;1.10;;
15667;SDS011;7934;48.710;9.024;2023-02-03T04:46:11;3.15;;;1.23;;
15667;SDS011;7934;48.710;9.024;2023-02-03T04:48:39;1.43;;;1.30;;
15667;SDS011;7934;48.710;9.024;2023-02-03T04:51:07;1.33;;;1.23;;
15667;SDS011;7934;48.710;9.024;2023-02-03T04:53:34;2.25;;;1.38;;
15667;SDS011;7934;48.710;9.024;2023-02-03T04:56:01;1.92;;;1.50;;
15667;SDS011;7934;48.710;9.024;2023-02-03T04:58:28;1.50;;;1.40;;
15667;SDS011;7934;48.710;9.024;2023-02-03T05:00:55;1.92;;;1.52;;
15667;SDS011;7934;48.710;9.024;2023-02-03T05:03:22;1.98;;;1.50;;
15667;SDS011;7934;48.710;9.024;2023-02-03T05:05:51;3.40;;;1.58;;
15667;SDS011;7934;48.710;9.024;2023-02-03T05:08:18;4.40;;;1.63;;
15667;SDS011;7934;48.710;9.024;2023-02-03T05:10:45;2.67;;;1.65;;
15667;SDS011;7934;48.710;9.024;2023-02-03T05:13:12;1.50;;;1.40;;
15667;SDS011;7934;48.710;9.024;2023-02-03T05:15:39;4.68;;;2.05;;
15667;SDS011;7934;48.710;9.024;2023-02-03T05:18:06;1.42;;;1.33;;
15667;SDS011;7934;48.710;9.024;2023-02-03T05:20:34;2.83;;;1.40;;
15667;SDS011;7934;48.710;9.024;2023-02-03T05:23:02;1.70;;;1.50;;
15667;SDS011;7934;48.710;9.024;2023-02-03T05:25:29;2.13;;;1.40;;
15667;SDS011;7934;48.710;9.024;2023-02-03T05:27:56;2.17;;;1.60;;
15667;SDS011;7934;48.710;9.024;2023-02-03T05:30:23;3.28;;;1.65;;
15667;SDS011;7934;48.710;9.024;2023-02-03T05:32:50;1.92;;;1.83;;
15667;SDS011;7934;48.710;9.024;2023-02-03T05:35:18;2.43;;;1.50;;
15667;SDS011;7934;48.710;9.024;2023-02-03T05:37:45;2.22;;;1.60;;
15667;SDS011;7934;48.710;9.024;2023-02-03T05:40:14;3.03;;;1.80;;
15667;SDS011;7934;48.710;9.024;2023-02-03T05:42:59;2.33;;;1.57;;
15667;SDS011;7934;48.710;9.024;2023-02-03T05:45:26;3.63;;;1.63;;
15667;SDS011;7934;48.710;9.024;2023-02-03T05:47:53;3.40;;;1.80;;
15667;SDS011;7934;48.710;9.024;2023-02-03T05:50:20;1.58;;;1.50;;
15667;SDS011;7934;48.710;9.024;2023-02-03T05:52:47;2.70;;;1.58;;
15667;SDS011;7934;48.710;9.024;2023-02-03T05:55:16;2.80;;;1.60;;
15667;SDS011;7934;48.710;9.024;2023-02-03T05:57:43;1.95;;;1.70;;
15667;SDS011;7934;48.710;9.024;2023-02-03T06:00:11;1.63;;;1.53;;
15667;SDS011;7934;48.710;9.024;2023-02-03T06:02:38;2.13;;;1.80;;
15667;SDS011;7934;48.710;9.024;2023-02-03T06:05:06;1.85;;;1.63;;
15667;SDS011;7934;48.710;9.024;2023-02-03T06:07:33;1.90;;;1.42;;
15667;SDS011;7934;48.710;9.024;2023-02-03T06:10:00;2.38;;;1.60;;
15667;SDS011;7934;48.710;9.024;2023-02-03T06:12:29;4.47;;;1.60;;
15667;SDS011;7934;48.710;9.024;2023-02-03T06:14:56;1.30;;;1.30;;
15667;SDS011;7934;48.710;9.024;2023-02-03T06:17:23;1.40;;;1.17;;
15667;SDS011;7934;48.710;9.024;2023-02-03T06:19:50;2.30;;;1.15;;
15667;SDS011;7934;48.710;9.024;2023-02-03T06:22:17;1.70;;;1.10;;
15667;SDS011;7934;48.710;9.024;2023-02-03T06:24:45;3.55;;;1.10;;
15667;SDS011;7934;48.710;9.024;2023-02-03T06:27:12;1.38;;;1.27;;
15667;SDS011;7934;48.710;9.024;2023-02-03T06:29:40;1.48;;;1.38;;
15667;SDS011;7934;48.710;9.024;2023-02-03T06:32:08;1.65;;;1.55;;
15667;SDS011;7934;48.710;9.024;2023-02-03T06:34:35;3.70;;;1.30;;
15667;SDS011;7934;48.710;9.024;2023-02-03T06:37:02;1.58;;;1.10;;
15667;SDS011;7934;48.710;9.024;2023-02-03T06:39:29;1.30;;;1.20;;
15667;SDS011;7934;48.710;9.024;2023-02-03T06:41:56;1.33;;;1.30;;
15667;SDS011;7934;48.710;9.024;2023-02-03T06:44:24;1.43;;;1.33;;
15667;SDS011;7934;48.710;9.024;2023-02-03T06:46:52;2.08;;;1.30;;
15667;SDS011;7934;48.710;9.024;2023-02-03T06:49:20;1.73;;;1.40;;
15667;SDS011;7934;48.710;9.024;2023-02-03T06:51:47;1.42;;;1.33;;
15667;SDS011;7934;48.710;9.024;2023-02-03T06:54:14;1.88;;;1.42;;
15667;SDS011;7934;48.710;9.024;2023-02-03T06:56:41;1.42;;;1.30;;
15667;SDS011;7934;48.710;9.024;2023-02-03T06:59:09;4.82;;;1.40;;
15667;SDS011;7934;48.710;9.024;2023-02-03T07:01:36;1.40;;;1.30;;
15667;SDS011;7934;48.710;9.024;2023-02-03T07:04:04;2.83;;;1.52;;
15667;SDS011;7934;48.710;9.024;2023-02-03T07:06:32;1.30;;;1.30;;
15667;SDS011;7934;48.710;9.024;2023-02-03T07:08:59;1.45;;;1.35;;
15667;SDS011;7934;48.710;9.024;2023-02-03T07:11:27;3.03;;;1.80;;
15667;SDS011;7934;48.710;9.024;2023-02-03T07:13:54;1.77;;;1.67;;
15667;SDS011;7934;48.710;9.024;2023-02-03T07:16:21;2.80;;;1.80;;
15667;SDS011;7934;48.710;9.024;2023-02-03T07:18:48;3.28;;;2.30;;
15667;SDS011;7934;48.710;9.024;2023-02-03T07:21:17;2.38;;;1.60;;
15667;SDS011;7934;48.710;9.024;2023-02-03T07:23:45;1.90;;;1.80;;
15667;SDS011;7934;48.710;9.024;2023-02-03T07:26:13;5.80;;;2.13;;
15667;SDS011;7934;48.710;9.024;2023-02-03T07:28:40;4.88;;;1.80;;
15667;SDS011;7934;48.710;9.024;2023-02-03T07:31:07;2.97;;;2.07;;
15667;SDS011;7934;48.710;9.024;2023-02-03T07:33:35;4.32;;;2.20;;
15667;SDS011;7934;48.710;9.024;2023-02-03T07:36:02;3.20;;;2.40;;
15667;SDS011;7934;48.710;9.024;2023-02-03T07:38:31;3.22;;;2.35;;
15667;SDS011;7934;48.710;9.024;2023-02-03T07:40:58;4.17;;;2.50;;
15667;SDS011;7934;48.710;9.024;2023-02-03T07:43:25;2.38;;;2.17;;
15667;SDS011;7934;48.710;9.024;2023-02-03T07:45:52;3.03;;;2.40;;
15667;SDS011;7934;48.710;9.024;2023-02-03T07:48:19;3.85;;;2.60;;
15667;SDS011;7934;48.710;9.024;2023-02-03T07:50:46;3.10;;;2.30;;
15667;SDS011;7934;48.710;9.024;2023-02-03T07:53:14;5.85;;;2.70;;
15667;SDS011;7934;48.710;9.024;2023-02-03T07:55:43;8.73;;;3.10;;
15667;SDS011;7934;48.710;9.024;2023-02-03T07:58:10;5.78;;;2.85;;
15667;SDS011;7934;48.710;9.024;2023-02-03T08:00:37;4.95;;;2.90;;
15667;SDS011;7934;48.710;9.024;2023-02-03T08:03:04;4.77;;;3.10;;
15667;SDS011;7934;48.710;9.024;2023-02-03T08:05:31;4.05;;;2.92;;
15667;SDS011;7934;48.710;9.024;2023-02-03T08:07:58;4.60;;;3.10;;
15667;SDS011;7934;48.710;9.024;2023-02-03T08:10:26;4.65;;;3.25;;
15667;SDS011;7934;48.710;9.024;2023-02-03T08:12:54;4.15;;;3.28;;
15667;SDS011;7934;48.710;9.024;2023-02-03T08:15:21;3.33;;;2.95;;
15667;SDS011;7934;48.710;9.024;2023-02-03T08:17:49;5.28;;;2.92;;
15667;SDS011;7934;48.710;9.024;2023-02-03T08:20:16;4.38;;;3.30;;
15667;SDS011;7934;48.710;9.024;2023-02-03T08:22:43;5.97;;;3.55;;
15667;SDS011;7934;48.710;9.024;2023-02-03T08:25:11;6.65;;;3.40;;
15667;SDS011;7934;48.710;9.024;2023-02-03T08:27:38;6.55;;;3.47;;
15667;SDS011;7934;48.710;9.024;2023-02-03T08:30:08;6.10;;;3.40;;
15667;SDS011;7934;48.710;9.024;2023-02-03T08:32:37;7.55;;;4.18;;
15667;SDS011;7934;48.710;9.024;2023-02-03T08:35:07;8.10;;;3.55;;
15667;SDS011;7934;48.710;9.024;2023-02-03T08:37:34;9.45;;;3.72;;
15667;SDS011;7934;48.710;9.024;2023-02-03T08:40:01;9.50;;;3.67;;
15667;SDS011;7934;48.710;9.024;2023-02-03T08:42:28;8.05;;;3.70;;
15667;SDS011;7934;48.710;9.024;2023-02-03T08:44:55;5.30;;;3.50;;
15667;SDS011;7934;48.710;9.024;2023-02-03T08:47:24;6.18;;;3.70;;
15667;SDS011;7934;48.710;9.024;2023-02-03T08:49:51;5.13;;;3.70;;
15667;SDS011;7934;48.710;9.024;2023-02-03T08:52:18;6.97;;;3.40;;
15667;SDS011;7934;48.710;9.024;2023-02-03T08:54:46;3.63;;;3.30;;
15667;SDS011;7934;48.710;9.024;2023-02-03T08:57:13;6.35;;;3.10;;
15667;SDS011;7934;48.710;9.024;2023-02-03T08:59:41;5.43;;;3.10;;
15667;SDS011;7934;48.710;9.024;2023-02-03T09:02:10;8.57;;;3.30;;
15667;SDS011;7934;48.710;9.024;2023-02-03T09:04:40;7.20;;;2.90;;
15667;SDS011;7934;48.710;9.024;2023-02-03T09:07:07;10.68;;;3.78;;
15667;SDS011;7934;48.710;9.024;2023-02-03T09:09:35;5.53;;;3.20;;
15667;SDS011;7934;48.710;9.024;2023-02-03T09:12:03;7.00;;;3.20;;
15667;SDS011;7934;48.710;9.024;2023-02-03T09:14:31;4.30;;;3.42;;
15667;SDS011;7934;48.710;9.024;2023-02-03T09:16:58;3.38;;;3.05;;
15667;SDS011;7934;48.710;9.024;2023-02-03T09:19:27;7.07;;;3.17;;
15667;SDS011;7934;48.710;9.024;2023-02-03T09:21:55;8.63;;;3.10;;
15667;SDS011;7934;48.710;9.024;2023-02-03T09:24:22;4.95;;;3.40;;
15667;SDS011;7934;48.710;9.024;2023-02-03T09:26:50;9.13;;;3.30;;
15667;SDS011;7934;48.710;9.024;2023-02-03T09:29:18;5.97;;;3.13;;
15667;SDS011;7934;48.710;9.024;2023-02-03T09:31:47;5.70;;;3.10;;
15667;SDS011;7934;48.710;9.024;2023-02-03T09:34:16;6.38;;;3.47;;
15667;SDS011;7934;48.710;9.024;2023-02-03T09:36:44;8.23;;;3.15;;
15667;SDS011;7934;48.710;9.024;2023-02-03T09:39:17;6.00;;;3.10;;
15667;SDS011;7934;48.710;9.024;2023-02-03T09:41:50;5.30;;;3.28;;
15667;SDS011;7934;48.710;9.024;2023-02-03T09:44:22;3.47;;;3.13;;
15667;SDS011;7934;48.710;9.024;2023-02-03T09:46:50;8.93;;;3.35;;
15667;SDS011;7934;48.710;9.024;2023-02-03T09:49:21;5.05;;;2.92;;
15667;SDS011;7934;48.710;9.024;2023-02-03T09:51:51;6.70;;;3.20;;
15667;SDS011;7934;48.710;9.024;2023-02-03T09:54:22;4.40;;;2.50;;
15667;SDS011;7934;48.710;9.024;2023-02-03T09:56:52;4.65;;;2.63;;
15667;SDS011;7934;48.710;9.024;2023-02-03T09:59:20;4.30;;;2.42;;
15667;SDS011;7934;48.710;9.024;2023-02-03T10:01:48;3.95;;;2.50;;
15667;SDS011;7934;48.710;9.024;2023-02-03T10:04:21;3.08;;;2.38;;
15667;SDS011;7934;48.710;9.024;2023-02-03T10:06:52;3.53;;;2.30;;
15667;SDS011;7934;48.710;9.024;2023-02-03T10:09:24;3.58;;;2.25;;
15667;SDS011;7934;48.710;9.024;2023-02-03T10:12:01;3.28;;;2.15;;
15667;SDS011;7934;48.710;9.024;2023-02-03T10:14:36;6.18;;;2.20;;
15667;SDS011;7934;48.710;9.024;2023-02-03T10:17:10;7.50;;;2.42;;
15667;SDS011;7934;48.710;9.024;2023-02-03T10:19:44;3.45;;;1.88;;
15667;SDS011;7934;48.710;9.024;2023-02-03T10:22:14;2.03;;;1.20;;
15667;SDS011;7934;48.710;9.024;2023-02-03T10:24:45;2.97;;;1.33;;
15667;SDS011;7934;48.710;9.024;2023-02-03T10:27:14;3.83;;;1.02;;
15667;SDS011;7934;48.710;9.024;2023-02-03T10:29:42;2.47;;;1.35;;
15667;SDS011;7934;48.710;9.024;2023-02-03T10:32:10;1.38;;;1.02;;
15667;SDS011;7934;48.710;9.024;2023-02-03T10:34:37;1.27;;;1.10;;
15667;SDS011;7934;48.710;9.024;2023-02-03T10:37:07;1.10;;;1.10;;
15667;SDS011;7934;48.710;9.024;2023-02-03T10:39:39;1.48;;;1.00;;
15667;SDS011;7934;48.710;9.024;2023-02-03T10:42:08;1.92;;;1.33;;
15667;SDS011;7934;48.710;9.024;2023-02-03T10:44:37;1.13;;;0.90;;
15667;SDS011;7934;48.710;9.024;2023-02-03T10:47:14;1.05;;;1.00;;
15667;SDS011;7934;48.710;9.024;2023-02-03T10:49:43;1.02;;;0.82;;
15667;SDS011;7934;48.710;9.024;2023-02-03T10:52:23;2.40;;;1.20;;
15667;SDS011;7934;48.710;9.024;2023-02-03T10:54:50;1.50;;;1.40;;
15667;SDS011;7934;48.710;9.024;2023-02-03T10:57:19;2.58;;;1.80;;
15667;SDS011;7934;48.710;9.024;2023-02-03T10:59:46;1.90;;;1.80;;
15667;SDS011;7934;48.710;9.024;2023-02-03T11:02:21;5.05;;;1.67;;
15667;SDS011;7934;48.710;9.024;2023-02-03T11:04:55;1.15;;;0.98;;
15667;SDS011;7934;48.710;9.024;2023-02-03T11:07:34;0.80;;;0.80;;
15667;SDS011;7934;48.710;9.024;2023-02-03T11:10:01;0.93;;;0.80;;
15667;SDS011;7934;48.710;9.024;2023-02-03T11:12:29;1.05;;;0.98;;
15667;SDS011;7934;48.710;9.024;2023-02-03T11:14:57;0.93;;;0.93;;
15667;SDS011;7934;48.710;9.024;2023-02-03T11:17:31;1.20;;;0.88;;
15667;SDS011;7934;48.710;9.024;2023-02-03T11:20:02;0.70;;;0.70;;
15667;SDS011;7934;48.710;9.024;2023-02-03T11:22:30;2.20;;;0.80;;
15667;SDS011;7934;48.710;9.024;2023-02-03T11:25:00;0.68;;;0.68;;
15667;SDS011;7934;48.710;9.024;2023-02-03T11:27:29;1.25;;;1.20;;
15667;SDS011;7934;48.710;9.024;2023-02-03T11:30:06;3.78;;;1.30;;
15667;SDS011;7934;48.710;9.024;2023-02-03T11:32:35;1.37;;;1.27;;
15667;SDS011;7934;48.710;9.024;2023-02-03T11:35:12;1.67;;;1.30;;
15667;SDS011;7934;48.710;9.024;2023-02-03T11:37:41;2.92;;;1.30;;
15667;SDS011;7934;48.710;9.024;2023-02-03T11:40:25;1.30;;;1.20;;
15667;SDS011;7934;48.710;9.024;2023-02-03T11:43:00;1.30;;;1.30;;
15667;SDS011;7934;48.710;9.024;2023-02-03T11:45:29;1.08;;;1.00;;
15667;SDS011;7934;48.710;9.024;2023-02-03T11:47:56;1.50;;;1.00;;
15667;SDS011;7934;48.710;9.024;2023-02-03T11:50:26;0.80;;;0.80;;
15667;SDS011;7934;48.710;9.024;2023-02-03T11:52:58;1.10;;;1.00;;
15667;SDS011;7934;48.710;9.024;2023-02-03T11:55:36;1.30;;;1.20;;
15667;SDS011;7934;48.710;9.024;2023-02-03T11:58:12;1.13;;;1.13;;
15667;SDS011;7934;48.710;9.024;2023-02-03T12:00:44;1.20;;;1.20;;
15667;SDS011;7934;48.710;9.024;2023-02-03T12:03:17;0.60;;;0.60;;
15667;SDS011;7934;48.710;9.024;2023-02-03T12:06:01;0.80;;;0.80;;
15667;SDS011;7934;48.710;9.024;2023-02-03T12:08:53;0.82;;;0.82;;
15667;SDS011;7934;48.710;9.024;2023-02-03T12:11:27;1.17;;;0.90;;
15667;SDS011;7934;48.710;9.024;2023-02-03T12:14:02;1.05;;;0.90;;
15667;SDS011;7934;48.710;9.024;2023-02-03T12:19:21;0.98;;;0.98;;
15667;SDS011;7934;48.710;9.024;2023-02-03T12:21:53;0.90;;;0.90;;
15667;SDS011;7934;48.710;9.024;2023-02-03T12:24:23;1.00;;;0.80;;
15667;SDS011;7934;48.710;9.024;2023-02-03T12:26:57;1.10;;;0.77;;
15667;SDS011;7934;48.710;9.024;2023-02-03T12:29:29;0.90;;;0.90;;
15667;SDS011;7934;48.710;9.024;2023-02-03T12:31:59;0.70;;;0.70;;
15667;SDS011;7934;48.710;9.024;2023-02-03T12:34:29;1.30;;;1.20;;
15667;SDS011;7934;48.710;9.024;2023-02-03T12:36:59;1.20;;;1.00;;
15667;SDS011;7934;48.710;9.024;2023-02-03T12:39:29;0.85;;;0.85;;
15667;SDS011;7934;48.710;9.024;2023-02-03T12:41:58;0.90;;;0.90;;
15667;SDS011;7934;48.710;9.024;2023-02-03T12:44:30;1.60;;;0.90;;
15667;SDS011;7934;48.710;9.024;2023-02-03T12:47:00;0.90;;;0.90;;
15667;SDS011;7934;48.710;9.024;2023-02-03T12:49:30;1.20;;;1.10;;
15667;SDS011;7934;48.710;9.024;2023-02-03T12:52:01;1.20;;;1.00;;
15667;SDS011;7934;48.710;9.024;2023-02-03T12:54:32;1.20;;;0.73;;
15667;SDS011;7934;48.710;9.024;2023-02-03T12:57:03;0.63;;;0.63;;
15667;SDS011;7934;48.710;9.024;2023-02-03T12:59:36;0.97;;;0.90;;
15667;SDS011;7934;48.710;9.024;2023-02-03T13:02:09;0.70;;;0.70;;
15667;SDS011;7934;48.710;9.024;2023-02-03T13:04:42;0.70;;;0.70;;
15667;SDS011;7934;48.710;9.024;2023-02-03T13:07:11;0.80;;;0.80;;
15667;SDS011;7934;48.710;9.024;2023-02-03T13:09:43;0.60;;;0.60;;
15667;SDS011;7934;48.710;9.024;2023-02-03T13:12:16;1.15;;;1.02;;
15667;SDS011;7934;48.710;9.024;2023-02-03T13:14:48;0.70;;;0.70;;
15667;SDS011;7934;48.710;9.024;2023-02-03T13:17:19;1.08;;;0.82;;
15667;SDS011;7934;48.710;9.024;2023-02-03T13:19:49;0.68;;;0.68;;
15667;SDS011;7934;48.710;9.024;2023-02-03T13:22:17;0.90;;;0.90;;
15667;SDS011;7934;48.710;9.024;2023-02-03T13:24:48;0.98;;;0.98;;
15667;SDS011;7934;48.710;9.024;2023-02-03T13:27:22;0.80;;;0.80;;
15667;SDS011;7934;48.710;9.024;2023-02-03T13:29:57;0.63;;;0.63;;
15667;SDS011;7934;48.710;9.024;2023-02-03T13:32:30;0.70;;;0.70;;
15667;SDS011;7934;48.710;9.024;2023-02-03T13:37:50;0.70;;;0.70;;
15667;SDS011;7934;48.710;9.024;2023-02-03T13:40:27;0.77;;;0.77;;
15667;SDS011;7934;48.710;9.024;2023-02-03T13:42:58;1.40;;;1.00;;
15667;SDS011;7934;48.710;9.024;2023-02-03T13:45:29;1.90;;;0.80;;
15667;SDS011;7934;48.710;9.024;2023-02-03T13:47:59;0.80;;;0.80;;
15667;SDS011;7934;48.710;9.024;2023-02-03T13:50:28;1.30;;;0.70;;
15667;SDS011;7934;48.710;9.024;2023-02-03T13:52:57;1.40;;;0.87;;
15667;SDS011;7934;48.710;9.024;2023-02-03T13:55:27;0.55;;;0.55;;
15667;SDS011;7934;48.710;9.024;2023-02-03T13:57:55;0.55;;;0.55;;
15667;SDS011;7934;48.710;9.024;2023-02-03T14:03:15;0.60;;;0.60;;
15667;SDS011;7934;48.710;9.024;2023-02-03T14:05:43;0.77;;;0.70;;
15667;SDS011;7934;48.710;9.024;2023-02-03T14:13:44;2.15;;;0.85;;
15667;SDS011;7934;48.710;9.024;2023-02-03T14:16:21;1.45;;;1.20;;
15667;SDS011;7934;48.710;9.024;2023-02-03T14:18:49;1.30;;;1.10;;
15667;SDS011;7934;48.710;9.024;2023-02-03T14:21:18;1.60;;;1.50;;
15667;SDS011;7934;48.710;9.024;2023-02-03T14:23:48;1.10;;;1.10;;
15667;SDS011;7934;48.710;9.024;2023-02-03T14:26:18;1.20;;;0.93;;
15667;SDS011;7934;48.710;9.024;2023-02-03T14:28:46;1.10;;;0.85;;
15667;SDS011;7934;48.710;9.024;2023-02-03T14:31:18;1.00;;;1.00;;
15667;SDS011;7934;48.710;9.024;2023-02-03T14:36:50;0.90;;;0.90;;
15667;SDS011;7934;48.710;9.024;2023-02-03T14:42:07;1.08;;;0.90;;
15667;SDS011;7934;48.710;9.024;2023-02-03T14:44:38;1.23;;;1.20;;
15667;SDS011;7934;48.710;9.024;2023-02-03T14:47:11;1.30;;;1.20;;
15667;SDS011;7934;48.710;9.024;2023-02-03T14:49:44;2.30;;;1.23;;
15667;SDS011;7934;48.710;9.024;2023-02-03T14:52:23;1.83;;;1.30;;
15667;SDS011;7934;48.710;9.024;2023-02-03T14:55:01;1.05;;;1.05;;
15667;SDS011;7934;48.710;9.024;2023-02-03T14:57:34;1.38;;;1.27;;
15667;SDS011;7934;48.710;9.024;2023-02-03T15:00:04;1.55;;;1.20;;
15667;SDS011;7934;48.710;9.024;2023-02-03T15:02:34;3.47;;;1.30;;
15667;SDS011;7934;48.710;9.024;2023-02-03T15:07:52;2.05;;;1.30;;
15667;SDS011;7934;48.710;9.024;2023-02-03T15:10:20;0.85;;;0.85;;
15667;SDS011;7934;48.710;9.024;2023-02-03T15:12:49;1.20;;;0.98;;
15667;SDS011;7934;48.710;9.024;2023-02-03T15:15:20;1.80;;;1.10;;
15667;SDS011;7934;48.710;9.024;2023-02-03T15:17:48;1.42;;;1.20;;
15667;SDS011;7934;48.710;9.024;2023-02-03T15:20:31;1.20;;;1.10;;
15667;SDS011;7934;48.710;9.024;2023-02-03T15:23:00;2.20;;;1.25;;
15667;SDS011;7934;48.710;9.024;2023-02-03T15:25:28;0.93;;;0.90;;
15667;SDS011;7934;48.710;9.024;2023-02-03T15:28:09;1.17;;;1.00;;
15667;SDS011;7934;48.710;9.024;2023-02-03T15:30:36;0.98;;;0.98;;
15667;SDS011;7934;48.710;9.024;2023-02-03T15:33:05;2.08;;;1.20;;
15667;SDS011;7934;48.710;9.024;2023-02-03T15:35:33;1.00;;;1.00;;
15667;SDS011;7934;48.710;9.024;2023-02-03T15:38:03;1.20;;;0.90;;